createdAt,value
2018-04-13T00:00:20.239Z,46.50
2018-04-13T00:02:48.011Z,46.50
2018-04-13T00:05:15.874Z,46.50
2018-04-13T00:07:43.669Z,46.50
2018-04-13T00:10:11.498Z,46.50
2018-04-13T00:12:39.285Z,46.40
2018-04-13T00:15:07.087Z,46.30
2018-04-13T00:17:34.848Z,46.30
2018-04-13T00:20:02.676Z,46.30
2018-04-13T00:22:30.431Z,46.30
2018-04-13T00:24:58.242Z,46.10
2018-04-13T00:27:26.043Z,45.90
2018-04-13T00:29:53.700Z,45.90
2018-04-13T00:32:22.168Z,45.90
2018-04-13T00:34:50.617Z,46.00
2018-04-13T00:37:19.075Z,46.00
2018-04-13T00:39:46.726Z,45.90
2018-04-13T00:42:14.470Z,46.00
2018-04-13T00:44:42.892Z,46.10
2018-04-13T00:47:10.552Z,46.10
2018-04-13T00:49:38.210Z,46.20
2018-04-13T00:52:06.039Z,46.50
2018-04-13T00:54:33.848Z,46.50
2018-04-13T00:57:01.531Z,46.40
2018-04-13T00:59:29.220Z,46.30
2018-04-13T01:01:56.952Z,46.20
2018-04-13T01:04:24.622Z,46.20
2018-04-13T01:06:52.308Z,46.30
2018-04-13T01:09:19.956Z,47.00
2018-04-13T01:11:48.384Z,46.30
2018-04-13T01:14:16.025Z,46.30
2018-04-13T01:16:43.708Z,46.30
2018-04-13T01:19:12.176Z,46.50
2018-04-13T01:21:39.885Z,46.50
2018-04-13T01:26:42.317Z,46.60
2018-04-13T01:29:09.969Z,46.50
2018-04-13T01:31:37.664Z,46.50
2018-04-13T01:34:05.310Z,46.50
2018-04-13T01:36:32.986Z,46.50
2018-04-13T01:39:00.647Z,46.40
2018-04-13T01:41:29.066Z,46.30
2018-04-13T01:43:57.498Z,46.20
2018-04-13T01:46:25.194Z,46.20
2018-04-13T01:48:52.869Z,46.10
2018-04-13T01:51:21.318Z,46.20
2018-04-13T01:53:48.993Z,46.20
2018-04-13T01:56:16.886Z,46.30
2018-04-13T01:58:44.677Z,46.30
2018-04-13T02:01:12.431Z,46.30
2018-04-13T02:03:41.107Z,46.30
2018-04-13T02:06:08.956Z,46.30
2018-04-13T02:08:36.726Z,46.30
2018-04-13T02:11:04.580Z,46.40
2018-04-13T02:13:32.372Z,46.40
2018-04-13T02:16:00.156Z,46.50
2018-04-13T02:18:28.013Z,46.50
2018-04-13T02:20:56.552Z,46.40
2018-04-13T02:23:25.081Z,46.50
2018-04-13T02:25:52.917Z,46.40
2018-04-13T02:28:20.692Z,46.60
2018-04-13T02:30:48.374Z,46.70
2018-04-13T02:33:16.051Z,46.70
2018-04-13T02:35:43.706Z,46.60
2018-04-13T02:38:11.393Z,46.50
2018-04-13T02:40:39.835Z,46.30
2018-04-13T02:43:07.513Z,46.20
2018-04-13T02:45:35.165Z,46.20
2018-04-13T02:48:02.814Z,46.10
2018-04-13T02:50:30.496Z,46.10
2018-04-13T02:52:58.180Z,46.10
2018-04-13T02:55:26.614Z,46.10
2018-04-13T02:57:54.273Z,46.00
2018-04-13T03:00:21.945Z,46.10
2018-04-13T03:02:51.675Z,46.30
2018-04-13T03:05:20.098Z,46.40
2018-04-13T03:07:47.779Z,46.40
2018-04-13T03:10:15.433Z,46.30
2018-04-13T03:12:43.083Z,46.30
2018-04-13T03:15:10.742Z,46.20
2018-04-13T03:17:38.403Z,46.10
2018-04-13T03:20:06.071Z,46.00
2018-04-13T03:22:33.742Z,45.90
2018-04-13T03:25:01.500Z,45.80
2018-04-13T03:27:29.171Z,45.80
2018-04-13T03:29:56.858Z,45.80
2018-04-13T03:32:24.522Z,45.60
2018-04-13T03:34:52.181Z,45.60
2018-04-13T03:37:19.904Z,45.60
2018-04-13T03:39:47.608Z,45.40
2018-04-13T03:42:15.260Z,45.30
2018-04-13T03:44:42.933Z,45.30
2018-04-13T03:47:11.380Z,45.30
2018-04-13T03:49:39.050Z,45.20
2018-04-13T03:52:06.734Z,45.20
2018-04-13T03:54:34.523Z,45.20
2018-04-13T03:57:02.387Z,45.30
2018-04-13T03:59:30.270Z,45.30
2018-04-13T04:01:58.112Z,45.40
2018-04-13T04:04:25.919Z,45.30
2018-04-13T04:06:53.687Z,45.30
2018-04-13T04:09:21.631Z,45.20
2018-04-13T04:11:49.426Z,45.20
2018-04-13T04:14:17.167Z,45.20
2018-04-13T04:16:44.935Z,45.30
2018-04-13T04:19:12.594Z,45.20
2018-04-13T04:21:53.089Z,45.90
2018-04-13T04:24:33.387Z,45.30
2018-04-13T04:27:01.186Z,45.30
2018-04-13T04:29:29.019Z,45.30
2018-04-13T04:31:56.798Z,45.20
2018-04-13T04:34:24.611Z,45.20
2018-04-13T04:36:53.268Z,45.30
2018-04-13T04:39:21.071Z,45.20
2018-04-13T04:41:48.847Z,45.20
2018-04-13T04:44:16.620Z,45.10
2018-04-13T04:46:44.413Z,45.10
2018-04-13T04:49:12.282Z,45.00
2018-04-13T04:51:40.083Z,45.00
2018-04-13T04:54:08.667Z,44.90
2018-04-13T04:56:37.256Z,44.80
2018-04-13T04:59:05.014Z,44.80
2018-04-13T05:01:32.780Z,44.70
2018-04-13T05:04:00.563Z,44.70
2018-04-13T05:06:28.312Z,44.60
2018-04-13T05:08:56.080Z,44.50
2018-04-13T05:11:24.646Z,44.40
2018-04-13T05:13:53.210Z,44.30
2018-04-13T05:16:21.052Z,44.20
2018-04-13T05:18:48.831Z,44.10
2018-04-13T05:21:16.626Z,44.60
2018-04-13T05:23:44.454Z,43.80
2018-04-13T05:26:12.290Z,43.60
2018-04-13T05:28:40.037Z,43.40
2018-04-13T05:31:07.886Z,43.40
2018-04-13T05:33:35.663Z,43.40
2018-04-13T05:36:03.433Z,43.40
2018-04-13T05:38:31.220Z,43.30
2018-04-13T05:40:59.041Z,43.20
2018-04-13T05:43:27.551Z,43.10
2018-04-13T05:45:55.352Z,43.10
2018-04-13T05:48:23.142Z,43.10
2018-04-13T05:50:50.947Z,43.00
2018-04-13T05:53:18.797Z,43.00
2018-04-13T05:55:46.498Z,43.00
2018-04-13T05:58:15.030Z,43.10
2018-04-13T06:00:42.842Z,43.20
2018-04-13T06:03:10.682Z,43.20
2018-04-13T06:05:38.510Z,43.30
2018-04-13T06:08:06.311Z,43.30
2018-04-13T06:10:34.095Z,43.20
2018-04-13T06:13:01.919Z,43.10
2018-04-13T06:15:29.586Z,43.00
2018-04-13T06:17:57.367Z,42.80
2018-04-13T06:20:25.036Z,42.80
2018-04-13T06:22:52.682Z,43.00
2018-04-13T06:25:20.355Z,43.00
2018-04-13T06:27:48.065Z,43.10
2018-04-13T06:30:16.529Z,43.20
2018-04-13T06:32:44.994Z,43.30
2018-04-13T06:35:12.845Z,43.20
2018-04-13T06:37:40.687Z,43.40
2018-04-13T06:40:08.504Z,43.60
2018-04-13T06:42:37.107Z,44.00
2018-04-13T06:45:04.991Z,44.00
2018-04-13T06:47:33.615Z,44.10
2018-04-13T06:50:01.532Z,44.20
2018-04-13T06:52:30.167Z,44.40
2018-04-13T06:54:57.992Z,44.40
2018-04-13T06:57:25.815Z,44.60
2018-04-13T06:59:54.574Z,44.60
2018-04-13T07:02:22.422Z,44.60
2018-04-13T07:04:50.244Z,44.50
2018-04-13T07:07:18.756Z,44.40
2018-04-13T07:09:46.591Z,44.40
2018-04-13T07:12:14.359Z,44.40
2018-04-13T07:14:42.214Z,44.50
2018-04-13T07:17:10.728Z,44.60
2018-04-13T07:19:38.502Z,44.60
2018-04-13T07:22:06.256Z,44.70
2018-04-13T07:24:34.846Z,44.70
2018-04-13T07:27:03.380Z,44.30
2018-04-13T07:29:31.982Z,44.50
2018-04-13T07:31:59.778Z,44.50
2018-04-13T07:34:27.527Z,44.50
2018-04-13T07:36:55.290Z,44.40
2018-04-13T07:39:23.129Z,44.30
2018-04-13T07:41:51.621Z,44.30
2018-04-13T07:44:19.377Z,44.30
2018-04-13T07:46:47.150Z,44.40
2018-04-13T07:49:14.955Z,44.70
2018-04-13T07:51:42.715Z,45.30
2018-04-13T07:54:10.517Z,44.70
2018-04-13T07:56:39.016Z,44.90
2018-04-13T07:59:07.591Z,45.60
2018-04-13T08:01:35.334Z,45.60
2018-04-13T08:04:04.051Z,46.30
2018-04-13T08:06:31.833Z,46.20
2018-04-13T08:08:59.814Z,46.50
2018-04-13T08:11:28.201Z,47.20
2018-04-13T08:13:56.631Z,47.10
2018-04-13T08:16:24.481Z,47.40
2018-04-13T08:18:53.012Z,47.80
2018-04-13T08:21:20.827Z,47.70
2018-04-13T08:23:49.373Z,48.00
2018-04-13T08:26:17.231Z,48.00
2018-04-13T08:28:45.040Z,48.00
2018-04-13T08:31:12.842Z,48.00
2018-04-13T08:33:40.589Z,48.00
2018-04-13T08:36:08.392Z,48.00
2018-04-13T08:38:36.151Z,48.20
2018-04-13T08:41:03.988Z,48.30
2018-04-13T08:43:31.824Z,48.10
2018-04-13T08:46:00.378Z,48.00
2018-04-13T08:48:28.175Z,48.00
2018-04-13T08:50:56.045Z,48.00
2018-04-13T08:53:23.835Z,48.00
2018-04-13T08:55:51.690Z,48.00
2018-04-13T08:58:19.483Z,48.00
2018-04-13T09:00:47.382Z,47.70
2018-04-13T09:03:15.903Z,47.50
2018-04-13T09:05:43.846Z,47.40
2018-04-13T09:08:11.622Z,47.30
2018-04-13T09:10:39.421Z,47.30
2018-04-13T09:13:07.203Z,46.80
2018-04-13T09:15:34.960Z,46.50
2018-04-13T09:18:02.709Z,46.60
2018-04-13T09:20:30.557Z,46.80
2018-04-13T09:22:58.310Z,47.20
2018-04-13T09:25:26.060Z,47.40
2018-04-13T09:27:53.832Z,47.40
2018-04-13T09:30:21.610Z,47.40
2018-04-13T09:32:49.370Z,47.40
2018-04-13T09:35:17.172Z,47.40
2018-04-13T09:37:44.959Z,47.40
2018-04-13T09:40:13.494Z,47.50
2018-04-13T09:42:41.292Z,47.50
2018-04-13T09:45:09.848Z,47.80
2018-04-13T09:47:37.671Z,47.70
2018-04-13T09:50:05.443Z,47.90
2018-04-13T09:52:33.236Z,48.30
2018-04-13T09:55:01.105Z,49.00
2018-04-13T09:57:28.910Z,49.50
2018-04-13T09:59:56.666Z,49.70
2018-04-13T10:02:25.823Z,49.70
2018-04-13T10:04:56.411Z,49.70
2018-04-13T10:07:24.230Z,49.50
2018-04-13T10:09:52.818Z,49.40
2018-04-13T10:12:20.611Z,49.30
2018-04-13T10:14:48.415Z,49.10
2018-04-13T10:17:16.189Z,48.90
2018-04-13T10:19:44.251Z,48.70
2018-04-13T10:22:12.039Z,48.50
2018-04-13T10:24:39.857Z,48.40
2018-04-13T10:27:07.600Z,48.30
2018-04-13T10:29:36.135Z,48.30
2018-04-13T10:32:05.723Z,48.20
2018-04-13T10:34:33.614Z,48.20
2018-04-13T10:37:01.403Z,48.30
2018-04-13T10:39:29.935Z,48.30
2018-04-13T10:41:58.451Z,48.40
2018-04-13T10:44:26.246Z,48.40
2018-04-13T10:46:54.027Z,48.40
2018-04-13T10:49:21.823Z,48.30
2018-04-13T10:51:49.584Z,48.30
2018-04-13T10:54:17.378Z,48.20
2018-04-13T10:56:45.907Z,48.00
2018-04-13T10:59:13.794Z,48.00
2018-04-13T11:01:41.680Z,47.80
2018-04-13T11:04:09.451Z,47.80
2018-04-13T11:06:38.023Z,47.60
2018-04-13T11:09:05.910Z,47.60
2018-04-13T11:11:34.456Z,47.70
2018-04-13T11:14:02.324Z,47.70
2018-04-13T11:16:30.064Z,47.60
2018-04-13T11:18:57.844Z,47.90
2018-04-13T11:21:25.568Z,48.20
2018-04-13T11:23:53.398Z,48.60
2018-04-13T11:26:21.943Z,49.00
2018-04-13T11:28:49.713Z,49.00
2018-04-13T11:31:18.329Z,49.40
2018-04-13T11:33:46.873Z,49.50
2018-04-13T11:36:14.645Z,49.50
2018-04-13T11:38:42.430Z,49.30
2018-04-13T11:41:10.966Z,48.30
2018-04-13T11:43:39.546Z,48.10
2018-04-13T11:46:07.287Z,48.00
2018-04-13T11:48:35.090Z,47.80
2018-04-13T11:51:02.886Z,47.60
2018-04-13T11:53:31.436Z,47.60
2018-04-13T11:55:59.271Z,47.60
2018-04-13T11:58:27.004Z,47.80
2018-04-13T12:00:55.547Z,48.00
2018-04-13T12:03:23.355Z,48.00
2018-04-13T12:05:51.230Z,48.00
2018-04-13T12:08:18.979Z,47.70
2018-04-13T12:10:47.620Z,47.10
2018-04-13T12:13:15.411Z,47.10
2018-04-13T12:15:43.926Z,47.30
2018-04-13T12:18:11.682Z,47.20
2018-04-13T12:20:39.569Z,47.80
2018-04-13T12:23:07.310Z,47.10
2018-04-13T12:25:35.152Z,46.60
2018-04-13T12:28:03.779Z,46.60
2018-04-13T12:30:31.528Z,46.60
2018-04-13T12:32:59.270Z,46.90
2018-04-13T12:35:27.810Z,47.00
2018-04-13T12:37:55.606Z,47.00
2018-04-13T12:40:24.191Z,46.70
2018-04-13T12:42:52.732Z,46.50
2018-04-13T12:45:20.551Z,46.40
2018-04-13T12:47:48.334Z,46.60
2018-04-13T12:50:16.071Z,46.90
2018-04-13T12:52:44.638Z,48.60
2018-04-13T12:55:13.378Z,49.30
2018-04-13T12:57:41.007Z,49.30
2018-04-13T13:00:08.894Z,49.40
2018-04-13T13:02:36.680Z,50.10
2018-04-13T13:05:04.445Z,50.80
2018-04-13T13:07:32.210Z,50.90
2018-04-13T13:09:59.990Z,50.70
2018-04-13T13:12:27.782Z,50.70
2018-04-13T13:14:56.350Z,51.60
2018-04-13T13:17:24.871Z,52.00
2018-04-13T13:19:52.643Z,52.00
2018-04-13T13:22:20.457Z,52.30
2018-04-13T13:24:49.001Z,52.70
2018-04-13T13:27:16.783Z,52.70
2018-04-13T13:29:44.658Z,53.10
2018-04-13T13:32:12.440Z,53.40
2018-04-13T13:34:41.015Z,53.10
2018-04-13T13:37:09.675Z,52.60
2018-04-13T13:39:37.448Z,52.50
2018-04-13T13:42:05.193Z,52.10
2018-04-13T13:44:32.975Z,51.70
2018-04-13T13:47:00.757Z,51.70
2018-04-13T13:49:29.377Z,51.20
2018-04-13T13:51:57.135Z,51.10
2018-04-13T13:54:24.867Z,51.00
2018-04-13T13:56:53.416Z,50.60
2018-04-13T13:59:21.179Z,50.50
2018-04-13T14:01:48.983Z,50.20
2018-04-13T14:04:16.771Z,50.00
2018-04-13T14:06:44.551Z,49.90
2018-04-13T14:09:12.349Z,49.80
2018-04-13T14:11:40.069Z,49.60
2018-04-13T14:14:07.852Z,48.80
2018-04-13T14:16:35.546Z,49.10
2018-04-13T14:19:03.221Z,48.90
2018-04-13T14:21:31.037Z,48.90
2018-04-13T14:23:58.894Z,48.90
2018-04-13T14:26:26.643Z,49.80
2018-04-13T14:28:54.434Z,49.10
2018-04-13T14:31:22.121Z,49.00
2018-04-13T14:33:49.935Z,48.70
2018-04-13T14:36:17.728Z,48.60
2018-04-13T14:38:45.978Z,48.70
2018-04-13T14:41:13.791Z,48.90
2018-04-13T14:43:42.368Z,48.90
2018-04-13T14:46:10.999Z,48.80
2018-04-13T14:48:38.812Z,48.80
2018-04-13T14:51:07.357Z,49.00
2018-04-13T14:53:35.114Z,49.00
2018-04-13T14:56:02.787Z,49.10
2018-04-13T14:58:30.520Z,49.30
2018-04-13T15:00:58.345Z,48.40
2018-04-13T15:03:26.899Z,48.30
2018-04-13T15:05:54.678Z,48.30
2018-04-13T15:08:22.471Z,48.30
2018-04-13T15:10:51.051Z,48.30
2018-04-13T15:13:19.591Z,48.30
2018-04-13T15:15:47.391Z,48.30
2018-04-13T15:18:15.943Z,48.00
2018-04-13T15:20:43.715Z,48.00
2018-04-13T15:23:11.513Z,47.60
2018-04-13T15:25:39.260Z,47.50
2018-04-13T15:28:07.856Z,47.30
2018-04-13T15:30:36.595Z,47.40
2018-04-13T15:33:04.355Z,47.10
2018-04-13T15:35:32.149Z,47.00
2018-04-13T15:38:00.722Z,47.50
2018-04-13T15:40:28.524Z,47.40
2018-04-13T15:42:56.433Z,47.60
2018-04-13T15:45:24.267Z,47.80
2018-04-13T15:47:52.055Z,48.00
2018-04-13T15:50:19.849Z,48.00
2018-04-13T15:52:48.372Z,48.00
2018-04-13T15:55:16.218Z,47.90
2018-04-13T15:57:43.982Z,47.90
2018-04-13T16:00:11.794Z,47.70
2018-04-13T16:02:39.548Z,47.50
2018-04-13T16:05:07.352Z,47.40
2018-04-13T16:07:35.875Z,47.20
2018-04-13T16:10:03.668Z,47.20
2018-04-13T16:12:31.448Z,47.20
2018-04-13T16:14:59.220Z,47.00
2018-04-13T16:17:27.778Z,46.90
2018-04-13T16:19:55.641Z,46.80
2018-04-13T16:22:23.419Z,46.60
2018-04-13T16:24:51.203Z,46.50
2018-04-13T16:27:19.754Z,46.50
2018-04-13T16:29:47.609Z,46.50
2018-04-13T16:32:15.417Z,46.50
2018-04-13T16:34:43.943Z,46.30
2018-04-13T16:37:11.778Z,46.30
2018-04-13T16:39:39.549Z,46.20
2018-04-13T16:42:07.342Z,46.10
2018-04-13T16:44:35.143Z,46.30
2018-04-13T16:47:03.734Z,46.30
2018-04-13T16:49:32.291Z,46.10
2018-04-13T16:52:00.106Z,46.10
2018-04-13T16:54:27.915Z,46.10
2018-04-13T16:56:55.707Z,46.10
2018-04-13T16:59:24.305Z,45.90
2018-04-13T17:01:51.984Z,45.90
2018-04-13T17:04:19.787Z,46.00
2018-04-13T17:06:47.614Z,45.90
2018-04-13T17:09:15.388Z,45.80
2018-04-13T17:11:43.152Z,45.60
2018-04-13T17:14:11.065Z,45.60
2018-04-13T17:16:39.826Z,45.50
2018-04-13T17:19:07.609Z,45.40
2018-04-13T17:21:35.415Z,45.20
2018-04-13T17:24:03.206Z,45.10
2018-04-13T17:26:30.885Z,45.10
2018-04-13T17:28:58.522Z,45.10
2018-04-13T17:31:26.330Z,45.10
2018-04-13T17:33:54.850Z,45.10
2018-04-13T17:36:22.536Z,45.10
2018-04-13T17:38:50.344Z,45.10
2018-04-13T17:41:18.936Z,45.00
2018-04-13T17:43:46.768Z,45.00
2018-04-13T17:46:14.674Z,45.00
2018-04-13T17:48:42.478Z,45.10
2018-04-13T17:51:10.296Z,45.10
2018-04-13T17:53:38.242Z,45.20
2018-04-13T17:56:06.874Z,45.30
2018-04-13T17:58:34.680Z,45.30
2018-04-13T18:01:02.544Z,45.40
2018-04-13T18:03:30.394Z,45.60
2018-04-13T18:05:58.230Z,45.70
2018-04-13T18:08:26.836Z,45.70
2018-04-13T18:10:54.626Z,45.70
2018-04-13T18:13:22.493Z,45.60
2018-04-13T18:15:51.087Z,45.60
2018-04-13T18:18:19.762Z,45.40
2018-04-13T18:20:48.438Z,45.40
2018-04-13T18:23:16.332Z,45.40
2018-04-13T18:25:44.162Z,45.40
2018-04-13T18:28:12.014Z,45.40
2018-04-13T18:30:39.848Z,45.40
2018-04-13T18:33:07.734Z,45.30
2018-04-13T18:35:35.564Z,45.40
2018-04-13T18:38:03.391Z,45.40
2018-04-13T18:40:31.209Z,45.30
2018-04-13T18:42:59.029Z,45.20
2018-04-13T18:45:27.732Z,45.20
2018-04-13T18:47:56.338Z,45.10
2018-04-13T18:50:24.272Z,45.10
2018-04-13T18:52:52.882Z,45.10
2018-04-13T18:55:20.691Z,45.10
2018-04-13T18:57:48.518Z,45.00
2018-04-13T19:00:16.385Z,45.10
2018-04-13T19:02:44.248Z,45.20
2018-04-13T19:05:12.043Z,45.20
2018-04-13T19:07:39.894Z,45.20
2018-04-13T19:10:07.695Z,46.00
2018-04-13T19:12:35.565Z,46.00
2018-04-13T19:15:04.268Z,45.40
2018-04-13T19:17:32.896Z,45.50
2018-04-13T19:20:00.747Z,45.50
2018-04-13T19:22:28.569Z,45.40
2018-04-13T19:24:57.166Z,45.20
2018-04-13T19:27:25.031Z,45.20
2018-04-13T19:29:52.868Z,45.10
2018-04-13T19:32:20.691Z,45.10
2018-04-13T19:34:48.516Z,45.10
2018-04-13T19:37:17.125Z,45.00
2018-04-13T19:39:45.026Z,45.00
2018-04-13T19:42:12.855Z,45.00
2018-04-13T19:44:40.715Z,45.20
2018-04-13T19:47:08.589Z,45.30
2018-04-13T19:49:36.390Z,45.30
2018-04-13T19:52:04.263Z,45.40
2018-04-13T19:54:32.155Z,45.50
2018-04-13T19:57:00.741Z,45.40
2018-04-13T19:59:29.352Z,45.30
2018-04-13T20:01:57.952Z,45.40
2018-04-13T20:04:25.801Z,45.30
2018-04-13T20:06:53.644Z,45.30
2018-04-13T20:09:21.523Z,45.90
2018-04-13T20:11:49.359Z,45.40
2018-04-13T20:14:24.710Z,45.60
2018-04-13T20:16:53.291Z,45.80
2018-04-13T20:19:21.875Z,45.80
2018-04-13T20:21:50.513Z,45.70
2018-04-13T20:24:18.351Z,45.70
2018-04-13T20:26:46.158Z,45.60
2018-04-13T20:29:14.836Z,45.70
2018-04-13T20:31:42.687Z,45.70
2018-04-13T20:34:10.523Z,45.70
2018-04-13T20:36:38.389Z,45.70
2018-04-13T20:39:06.300Z,45.70
2018-04-13T20:41:34.120Z,45.80
2018-04-13T20:44:01.948Z,45.80
2018-04-13T20:46:30.478Z,45.60
2018-04-13T20:48:59.009Z,45.50
2018-04-13T20:51:27.559Z,45.50
2018-04-13T20:53:55.348Z,45.50
2018-04-13T20:56:23.166Z,45.50
2018-04-13T20:58:50.964Z,45.40
2018-04-13T21:01:18.754Z,45.30
2018-04-13T21:03:47.311Z,45.00
2018-04-13T21:06:15.080Z,45.00
2018-04-13T21:08:42.752Z,44.90
2018-04-13T21:11:10.390Z,45.00
2018-04-13T21:13:38.055Z,44.80
2018-04-13T21:16:05.782Z,44.70
2018-04-13T21:18:33.438Z,44.70
2018-04-13T21:21:01.113Z,44.70
2018-04-13T21:23:28.791Z,44.60
2018-04-13T21:25:56.450Z,44.50
2018-04-13T21:28:24.181Z,44.50
2018-04-13T21:30:51.877Z,44.50
2018-04-13T21:33:19.632Z,44.40
2018-04-13T21:35:47.292Z,44.20
2018-04-13T21:38:14.955Z,44.00
2018-04-13T21:40:42.616Z,44.00
2018-04-13T21:43:10.262Z,44.10
2018-04-13T21:45:37.934Z,44.10
2018-04-13T21:48:05.697Z,44.00
2018-04-13T21:50:34.118Z,44.00
2018-04-13T21:53:02.605Z,44.00
2018-04-13T21:55:31.050Z,44.00
2018-04-13T21:57:58.736Z,43.90
2018-04-13T22:00:27.214Z,43.80
2018-04-13T22:02:54.886Z,43.60
2018-04-13T22:05:23.315Z,43.60
2018-04-13T22:07:50.990Z,43.50
2018-04-13T22:10:18.637Z,43.50
2018-04-13T22:12:58.100Z,43.50
2018-04-13T22:15:26.742Z,43.40
2018-04-13T22:17:54.441Z,43.30
2018-04-13T22:20:22.113Z,43.40
2018-04-13T22:22:49.788Z,43.10
2018-04-13T22:25:18.220Z,42.90
2018-04-13T22:27:46.280Z,42.90
2018-04-13T22:30:13.967Z,42.70
2018-04-13T22:32:41.619Z,42.50
2018-04-13T22:35:09.391Z,42.50
2018-04-13T22:37:37.133Z,42.60
2018-04-13T22:40:04.796Z,42.60
2018-04-13T22:42:32.535Z,42.60
2018-04-13T22:45:00.276Z,42.70
2018-04-13T22:47:28.029Z,42.60
2018-04-13T22:49:55.797Z,42.70
2018-04-13T22:52:23.560Z,42.70
2018-04-13T22:54:51.291Z,42.60
2018-04-13T22:57:19.061Z,42.50
2018-04-13T22:59:46.733Z,42.40
2018-04-13T23:02:14.524Z,42.40
2018-04-13T23:04:42.273Z,42.40
2018-04-13T23:07:09.967Z,42.40
2018-04-13T23:09:37.622Z,42.40
2018-04-13T23:12:05.335Z,42.30
2018-04-13T23:14:33.006Z,42.40
2018-04-13T23:17:01.448Z,42.20
2018-04-13T23:19:29.122Z,42.20
2018-04-13T23:21:56.779Z,42.10
2018-04-13T23:24:24.449Z,41.90
2018-04-13T23:26:52.107Z,41.70
2018-04-13T23:29:19.779Z,41.70
2018-04-13T23:31:47.437Z,41.80
2018-04-13T23:34:15.132Z,41.80
2018-04-13T23:36:42.872Z,41.80
2018-04-13T23:39:10.564Z,41.70
2018-04-13T23:41:38.245Z,41.50
2018-04-13T23:44:05.884Z,41.40
2018-04-13T23:46:33.534Z,41.40
2018-04-13T23:49:01.938Z,41.40
2018-04-13T23:51:29.615Z,41.40
2018-04-13T23:53:57.270Z,41.30
2018-04-13T23:56:24.925Z,41.30
2018-04-13T23:58:52.585Z,41.20
